Time;durP1;ratioP1;P1;durP2;ratioP2;P2;SDS_P1;SDS_P2;PMS_P1;PMS_P2;Temp;Humidity;BMP_temperature;BMP_pressure;BME280_temperature;BME280_humidity;BME280_pressure;Samples;Min_cycle;Max_cycle;Signal;HPM_P1;HPM_P2
2021/12/23 00:01:42;;;;;;;27.02;17.95;;;;;;;;;;5150434;27;20039;-32
2021/12/23 00:04:14;;;;;;;26.45;18.95;;;;;;;;;;5150264;27;20034;-35
2021/12/23 00:06:43;;;;;;;27.08;18.38;;;;;;;;;;5150700;27;20054;-32
2021/12/23 00:09:12;;;;;;;27.92;18.90;;;;;;;;;;5152748;27;20045;-32
2021/12/23 00:11:39;;;;;;;30.20;18.27;;;;;;;;;;5154360;27;20038;-32
2021/12/23 00:14:08;;;;;;;27.17;18.88;;;;;;;;;;5153559;27;20039;-28
2021/12/23 00:24:50;;;;;;;25.60;17.65;;;;;;;;;;5151909;27;20038;-29
2021/12/23 00:27:16;;;;;;;27.90;18.38;;;;;;;;;;5154035;27;20042;-28
2021/12/23 00:29:42;;;;;;;28.10;19.80;;;;;;;;;;5154334;27;20037;-29
2021/12/23 00:32:08;;;;;;;31.75;18.35;;;;;;;;;;5154066;27;20491;-28
2021/12/23 00:34:38;;;;;;;27.75;19.67;;;;;;;;;;5153527;27;20121;-29
2021/12/23 00:37:13;;;;;;;25.98;19.30;;;;;;;;;;5153375;27;20069;-28
2021/12/23 00:39:42;;;;;;;28.40;19.88;;;;;;;;;;5137034;27;20038;-33
2021/12/23 00:42:09;;;;;;;30.40;21.10;;;;;;;;;;5154343;27;20054;-34
2021/12/23 00:44:36;;;;;;;31.35;19.67;;;;;;;;;;5153593;27;20046;-32
2021/12/23 00:47:05;;;;;;;29.70;20.90;;;;;;;;;;5152262;27;20061;-33
2021/12/23 00:49:33;;;;;;;27.45;20.63;;;;;;;;;;5153823;27;20250;-33
2021/12/23 00:52:01;;;;;;;29.65;19.88;;;;;;;;;;5153644;27;20042;-32
2021/12/23 00:54:27;;;;;;;29.98;20.50;;;;;;;;;;5134741;27;20081;-32
2021/12/23 00:56:56;;;;;;;28.73;19.38;;;;;;;;;;5153567;27;20452;-35
2021/12/23 00:59:22;;;;;;;27.08;18.75;;;;;;;;;;5154133;27;20042;-29
2021/12/23 01:01:48;;;;;;;31.67;19.52;;;;;;;;;;5154638;27;20087;-28
2021/12/23 01:04:14;;;;;;;28.10;19.58;;;;;;;;;;5153794;27;20383;-30
2021/12/23 01:06:40;;;;;;;25.63;19.05;;;;;;;;;;5153767;27;20043;-28
2021/12/23 01:09:07;;;;;;;29.20;19.80;;;;;;;;;;5153593;27;20070;-28
2021/12/23 01:11:36;;;;;;;24.60;18.80;;;;;;;;;;5154225;27;20485;-29
2021/12/23 01:19:38;;;;;;;31.65;19.48;;;;;;;;;;5153660;27;20054;-28
2021/12/23 01:22:05;;;;;;;32.85;19.45;;;;;;;;;;5153139;27;20046;-30
2021/12/23 01:24:34;;;;;;;29.35;20.55;;;;;;;;;;5153487;27;20057;-28
2021/12/23 01:27:04;;;;;;;29.13;18.65;;;;;;;;;;5153476;27;20047;-30
2021/12/23 01:29:30;;;;;;;28.60;19.48;;;;;;;;;;5153390;27;20491;-31
2021/12/23 01:32:04;;;;;;;32.25;19.83;;;;;;;;;;5153466;27;20042;-29
2021/12/23 01:34:33;;;;;;;27.35;18.38;;;;;;;;;;5152862;27;20035;-29
2021/12/23 01:36:59;;;;;;;27.58;19.05;;;;;;;;;;5152341;27;20045;-28
2021/12/23 01:39:25;;;;;;;25.27;16.30;;;;;;;;;;5152620;27;20039;-32
2021/12/23 01:41:56;;;;;;;28.85;19.95;;;;;;;;;;5144963;27;20136;-30
2021/12/23 01:44:25;;;;;;;29.92;19.42;;;;;;;;;;5137677;27;20045;-29
2021/12/23 01:46:51;;;;;;;28.75;18.85;;;;;;;;;;5131946;27;20039;-29
2021/12/23 01:49:20;;;;;;;25.65;17.85;;;;;;;;;;5131491;27;20031;-30
2021/12/23 01:51:46;;;;;;;27.38;18.33;;;;;;;;;;5131263;27;20039;-30
2021/12/23 01:54:12;;;;;;;27.98;19.55;;;;;;;;;;5130384;27;20065;-31
2021/12/23 01:56:38;;;;;;;27.35;18.77;;;;;;;;;;5132526;27;20039;-31
2021/12/23 01:59:04;;;;;;;24.58;18.25;;;;;;;;;;5134032;27;20093;-32
2021/12/23 02:01:30;;;;;;;29.52;18.92;;;;;;;;;;5134925;27;20039;-30
2021/12/23 02:03:56;;;;;;;26.08;19.02;;;;;;;;;;5133844;27;20072;-32
2021/12/23 02:06:22;;;;;;;30.27;19.38;;;;;;;;;;5133188;27;20043;-32
2021/12/23 02:08:48;;;;;;;30.33;20.00;;;;;;;;;;5131230;27;20059;-34
2021/12/23 02:11:23;;;;;;;29.38;20.23;;;;;;;;;;5131172;27;20123;-32
2021/12/23 02:13:49;;;;;;;27.05;18.30;;;;;;;;;;5130279;27;20031;-31
2021/12/23 02:16:15;;;;;;;28.08;17.80;;;;;;;;;;5130570;27;20488;-31
2021/12/23 02:18:41;;;;;;;27.00;18.88;;;;;;;;;;5130812;27;20388;-31
2021/12/23 02:21:10;;;;;;;26.58;18.05;;;;;;;;;;5130372;27;20410;-32
2021/12/23 02:23:36;;;;;;;25.40;18.90;;;;;;;;;;5130313;27;20427;-29
2021/12/23 02:26:03;;;;;;;27.80;19.17;;;;;;;;;;5130824;27;20503;-30
2021/12/23 02:28:29;;;;;;;32.10;19.45;;;;;;;;;;5131163;27;20039;-29
2021/12/23 02:31:01;;;;;;;27.88;19.42;;;;;;;;;;5131017;27;20506;-30
2021/12/23 02:33:30;;;;;;;24.58;19.10;;;;;;;;;;5131183;27;20038;-29
2021/12/23 02:36:05;;;;;;;27.00;18.77;;;;;;;;;;5130548;27;20035;-31
2021/12/23 02:38:31;;;;;;;26.65;18.70;;;;;;;;;;5129781;27;20046;-29
2021/12/23 02:40:58;;;;;;;27.98;19.65;;;;;;;;;;5131051;27;20039;-29
2021/12/23 02:43:33;;;;;;;30.13;19.48;;;;;;;;;;5131412;27;20110;-30
2021/12/23 02:45:59;;;;;;;29.10;18.90;;;;;;;;;;5131618;27;20508;-30
2021/12/23 02:48:34;;;;;;;28.42;19.38;;;;;;;;;;5130840;27;20043;-30
2021/12/23 02:51:01;;;;;;;26.98;18.67;;;;;;;;;;5131898;27;20039;-32
2021/12/23 02:53:30;;;;;;;31.23;19.65;;;;;;;;;;5131986;27;20503;-29
2021/12/23 02:55:57;;;;;;;26.60;18.95;;;;;;;;;;5131838;27;20039;-30
2021/12/23 02:58:23;;;;;;;29.52;19.08;;;;;;;;;;5131896;27;20043;-29
2021/12/23 03:00:53;;;;;;;24.90;18.05;;;;;;;;;;5131820;27;20060;-29
2021/12/23 03:03:20;;;;;;;27.20;19.02;;;;;;;;;;5131860;27;20122;-30
2021/12/23 03:05:47;;;;;;;25.75;18.55;;;;;;;;;;5131255;27;20035;-34
2021/12/23 03:08:13;;;;;;;29.40;18.75;;;;;;;;;;5131567;27;20430;-31
2021/12/23 03:10:39;;;;;;;29.40;19.25;;;;;;;;;;5131755;27;20042;-28
2021/12/23 03:13:05;;;;;;;29.13;18.23;;;;;;;;;;5130438;28;20031;-32
2021/12/23 03:15:31;;;;;;;28.25;19.45;;;;;;;;;;5131533;27;20043;-32
2021/12/23 03:17:58;;;;;;;27.05;19.17;;;;;;;;;;5131833;27;20063;-29
2021/12/23 03:20:24;;;;;;;25.65;18.33;;;;;;;;;;5131835;27;20046;-29
2021/12/23 03:22:50;;;;;;;27.63;19.08;;;;;;;;;;5131795;27;20081;-29
2021/12/23 03:25:16;;;;;;;27.50;19.65;;;;;;;;;;5131671;27;20438;-30
2021/12/23 03:27:42;;;;;;;27.98;18.02;;;;;;;;;;5131821;27;20045;-28
2021/12/23 03:30:09;;;;;;;26.15;18.67;;;;;;;;;;5131491;27;20039;-36
2021/12/23 03:32:36;;;;;;;28.35;19.67;;;;;;;;;;5131173;27;20031;-35
2021/12/23 03:35:03;;;;;;;32.78;19.42;;;;;;;;;;5130622;27;20065;-33
2021/12/23 03:37:34;;;;;;;29.60;18.85;;;;;;;;;;5131105;27;20519;-32
2021/12/23 03:40:00;;;;;;;28.58;18.58;;;;;;;;;;5126552;27;20067;-32
2021/12/23 03:42:26;;;;;;;25.92;17.70;;;;;;;;;;5108182;28;20500;-32
2021/12/23 03:44:52;;;;;;;27.75;18.55;;;;;;;;;;5130432;27;20035;-31
2021/12/23 03:47:21;;;;;;;29.70;18.73;;;;;;;;;;5132132;27;20071;-28
2021/12/23 03:49:49;;;;;;;27.17;18.10;;;;;;;;;;5135246;27;20039;-36
2021/12/23 03:52:18;;;;;;;30.10;20.00;;;;;;;;;;5135495;27;20487;-33
2021/12/23 03:54:43;;;;;;;24.38;17.35;;;;;;;;;;5134696;27;20061;-30
2021/12/23 03:57:09;;;;;;;28.17;18.75;;;;;;;;;;5134385;27;20047;-30
2021/12/23 03:59:39;;;;;;;28.02;19.35;;;;;;;;;;5135360;27;20105;-28
2021/12/23 04:02:06;;;;;;;27.23;18.08;;;;;;;;;;5135647;27;20618;-28
2021/12/23 04:04:32;;;;;;;27.17;18.27;;;;;;;;;;5135293;27;20042;-29
2021/12/23 04:06:58;;;;;;;24.95;17.67;;;;;;;;;;5135543;27;20572;-29
2021/12/23 04:09:24;;;;;;;27.42;18.58;;;;;;;;;;5135573;27;20068;-29
2021/12/23 04:11:53;;;;;;;26.98;17.63;;;;;;;;;;5135770;27;20042;-30
2021/12/23 04:14:23;;;;;;;24.92;17.73;;;;;;;;;;5135062;27;20039;-28
2021/12/23 04:16:52;;;;;;;30.45;19.25;;;;;;;;;;5134241;27;20377;-29
2021/12/23 04:19:18;;;;;;;25.27;17.45;;;;;;;;;;5135401;27;20043;-34
2021/12/23 04:21:53;;;;;;;27.77;17.98;;;;;;;;;;5135336;27;20053;-33
2021/12/23 04:24:19;;;;;;;25.92;17.65;;;;;;;;;;5135069;27;20043;-33
2021/12/23 04:26:45;;;;;;;28.13;18.65;;;;;;;;;;5135026;27;20487;-32
2021/12/23 04:29:14;;;;;;;25.70;17.33;;;;;;;;;;5135169;27;20529;-32
2021/12/23 04:31:40;;;;;;;26.13;17.85;;;;;;;;;;5134697;27;20035;-30
2021/12/23 04:34:06;;;;;;;25.83;17.20;;;;;;;;;;5133132;27;20061;-30
2021/12/23 04:36:32;;;;;;;27.98;18.58;;;;;;;;;;5122225;22;20048;-29
2021/12/23 04:38:59;;;;;;;24.13;16.63;;;;;;;;;;5113862;28;20511;-30
2021/12/23 04:41:30;;;;;;;27.70;17.23;;;;;;;;;;5114201;28;20040;-28
2021/12/23 04:44:02;;;;;;;25.58;16.77;;;;;;;;;;5114614;28;20040;-29
2021/12/23 04:46:31;;;;;;;25.88;16.63;;;;;;;;;;5114156;28;20063;-28
2021/12/23 04:48:58;;;;;;;24.98;17.55;;;;;;;;;;5114182;28;20119;-32
2021/12/23 04:51:24;;;;;;;24.48;16.80;;;;;;;;;;5114049;28;20108;-32
2021/12/23 04:53:50;;;;;;;21.67;16.17;;;;;;;;;;5113624;28;20043;-30
2021/12/23 04:56:21;;;;;;;23.38;15.65;;;;;;;;;;5112909;28;20036;-29
2021/12/23 04:58:47;;;;;;;23.25;15.98;;;;;;;;;;5113042;28;20043;-30
2021/12/23 05:01:20;;;;;;;22.90;16.13;;;;;;;;;;5112776;28;20043;-31
2021/12/23 05:03:52;;;;;;;26.70;17.65;;;;;;;;;;5109922;28;20118;-30
2021/12/23 05:06:18;;;;;;;25.88;16.70;;;;;;;;;;5112791;28;20114;-31
2021/12/23 05:08:44;;;;;;;25.27;16.67;;;;;;;;;;5112870;28;20044;-31
2021/12/23 05:11:10;;;;;;;22.42;16.38;;;;;;;;;;5112962;28;20039;-31
2021/12/23 05:13:39;;;;;;;23.05;16.52;;;;;;;;;;5112485;28;20377;-29
2021/12/23 05:16:08;;;;;;;24.83;16.70;;;;;;;;;;5112417;28;20127;-28
2021/12/23 05:18:35;;;;;;;24.30;16.02;;;;;;;;;;5112831;28;20048;-31
2021/12/23 05:21:05;;;;;;;23.80;16.13;;;;;;;;;;5112731;28;20039;-31
2021/12/23 05:23:35;;;;;;;25.55;17.45;;;;;;;;;;5112186;28;20457;-31
2021/12/23 05:26:05;;;;;;;25.02;17.20;;;;;;;;;;5112308;28;20035;-32
2021/12/23 05:28:39;;;;;;;23.88;17.17;;;;;;;;;;5094330;28;20040;-32
2021/12/23 05:31:05;;;;;;;26.55;16.73;;;;;;;;;;5094680;28;20043;-30
2021/12/23 05:33:31;;;;;;;25.80;17.05;;;;;;;;;;5093463;28;20050;-32
2021/12/23 05:35:59;;;;;;;27.40;17.33;;;;;;;;;;5112120;28;20042;-27
2021/12/23 05:38:28;;;;;;;23.08;16.55;;;;;;;;;;5094252;28;20127;-29
2021/12/23 05:40:54;;;;;;;24.23;17.45;;;;;;;;;;5112726;28;20122;-28
2021/12/23 05:43:29;;;;;;;26.00;16.83;;;;;;;;;;5112390;28;20043;-29
2021/12/23 05:46:03;;;;;;;34.03;22.58;;;;;;;;;;5111501;28;20582;-31
2021/12/23 05:48:32;;;;;;;26.55;18.25;;;;;;;;;;5112226;28;20040;-33
2021/12/23 05:51:04;;;;;;;27.90;18.67;;;;;;;;;;5112454;28;20035;-34
2021/12/23 05:53:30;;;;;;;25.42;16.98;;;;;;;;;;5111413;28;20048;-33
2021/12/23 05:55:56;;;;;;;28.42;17.10;;;;;;;;;;5107264;28;20530;-32
2021/12/23 05:58:22;;;;;;;23.20;16.20;;;;;;;;;;5093359;28;20043;-32
2021/12/23 06:00:48;;;;;;;26.33;17.05;;;;;;;;;;5104547;28;20046;-32
2021/12/23 06:03:14;;;;;;;29.65;19.45;;;;;;;;;;5087867;28;20088;-33
2021/12/23 06:05:40;;;;;;;27.40;19.33;;;;;;;;;;5099352;28;20143;-32
2021/12/23 06:08:07;;;;;;;27.10;17.90;;;;;;;;;;5097174;28;20283;-31
2021/12/23 06:10:32;;;;;;;29.25;19.27;;;;;;;;;;5090749;28;20508;-32
2021/12/23 06:13:09;;;;;;;29.98;20.10;;;;;;;;;;5090706;28;20036;-31
2021/12/23 06:15:44;;;;;;;26.33;18.52;;;;;;;;;;5090804;28;20047;-29
2021/12/23 06:18:10;;;;;;;26.98;18.45;;;;;;;;;;5105530;28;20041;-30
2021/12/23 06:20:38;;;;;;;29.92;19.02;;;;;;;;;;5091043;28;20044;-31
2021/12/23 06:23:05;;;;;;;29.55;18.65;;;;;;;;;;5090300;28;20447;-29
2021/12/23 06:25:31;;;;;;;29.75;19.27;;;;;;;;;;5094931;28;20036;-29
2021/12/23 06:27:57;;;;;;;26.35;18.20;;;;;;;;;;5092776;28;20031;-29
2021/12/23 06:30:23;;;;;;;28.83;18.13;;;;;;;;;;5108725;28;20093;-29
2021/12/23 06:32:52;;;;;;;25.73;17.45;;;;;;;;;;5062931;28;20048;-29
2021/12/23 06:35:18;;;;;;;26.95;17.48;;;;;;;;;;5100168;28;20040;-29
2021/12/23 06:37:45;;;;;;;24.30;17.30;;;;;;;;;;5106855;28;20053;-29
2021/12/23 06:40:18;;;;;;;29.13;18.92;;;;;;;;;;5086342;28;20075;-31
2021/12/23 06:42:44;;;;;;;29.00;18.63;;;;;;;;;;5084523;28;20492;-30
2021/12/23 06:45:11;;;;;;;37.45;18.63;;;;;;;;;;5085712;28;20075;-28
2021/12/23 06:47:38;;;;;;;30.60;19.67;;;;;;;;;;5088283;28;20042;-30
2021/12/23 06:50:05;;;;;;;28.00;19.67;;;;;;;;;;5070295;28;20040;-30
2021/12/23 06:52:31;;;;;;;29.60;19.45;;;;;;;;;;5088850;28;20044;-32
2021/12/23 06:54:57;;;;;;;32.83;21.23;;;;;;;;;;5089208;28;20074;-29
2021/12/23 06:57:27;;;;;;;33.25;21.98;;;;;;;;;;5070256;28;20052;-30
2021/12/23 06:59:53;;;;;;;33.65;21.42;;;;;;;;;;5070925;28;20063;-33
2021/12/23 07:02:19;;;;;;;34.40;23.60;;;;;;;;;;5090630;28;20408;-31
2021/12/23 07:04:48;;;;;;;39.08;26.75;;;;;;;;;;5089561;28;20040;-32
2021/12/23 07:07:26;;;;;;;33.65;23.45;;;;;;;;;;5090462;28;20032;-31
2021/12/23 07:09:54;;;;;;;32.00;22.27;;;;;;;;;;5090410;28;20177;-33
2021/12/23 07:12:20;;;;;;;35.35;23.77;;;;;;;;;;5104375;28;20043;-30
2021/12/23 07:14:46;;;;;;;31.67;20.08;;;;;;;;;;5109747;28;20039;-32
2021/12/23 07:17:12;;;;;;;31.35;20.25;;;;;;;;;;5091515;28;20044;-30
2021/12/23 07:19:39;;;;;;;32.40;20.25;;;;;;;;;;5104072;28;20058;-32
2021/12/23 07:22:05;;;;;;;32.90;22.42;;;;;;;;;;5100034;28;20036;-31
2021/12/23 07:24:31;;;;;;;33.30;20.58;;;;;;;;;;5083734;28;20557;-31
2021/12/23 07:26:58;;;;;;;29.50;21.27;;;;;;;;;;5099906;28;20051;-31
2021/12/23 07:29:27;;;;;;;32.78;22.02;;;;;;;;;;5101244;28;20575;-32
2021/12/23 07:31:53;;;;;;;31.80;20.95;;;;;;;;;;5096943;28;20032;-33
2021/12/23 07:34:19;;;;;;;31.98;20.45;;;;;;;;;;5089404;28;20040;-28
2021/12/23 07:36:45;;;;;;;31.10;20.80;;;;;;;;;;5089697;28;20544;-30
2021/12/23 07:39:14;;;;;;;31.48;21.80;;;;;;;;;;5090190;28;20040;-31
2021/12/23 07:41:40;;;;;;;31.23;20.95;;;;;;;;;;5089806;28;20051;-29
2021/12/23 07:44:19;;;;;;;33.67;21.05;;;;;;;;;;5076021;28;20071;-31
2021/12/23 07:46:45;;;;;;;33.95;20.45;;;;;;;;;;5092063;28;20110;-32
2021/12/23 07:49:11;;;;;;;33.60;21.38;;;;;;;;;;5110724;28;20096;-31
2021/12/23 07:51:37;;;;;;;32.92;20.73;;;;;;;;;;5107311;28;20429;-31
2021/12/23 07:54:03;;;;;;;28.40;18.85;;;;;;;;;;5090231;28;20047;-32
2021/12/23 07:56:29;;;;;;;37.33;21.63;;;;;;;;;;5071855;28;20106;-32
2021/12/23 07:58:55;;;;;;;29.50;19.70;;;;;;;;;;5089059;28;20094;-33
2021/12/23 08:01:21;;;;;;;34.58;19.92;;;;;;;;;;5089856;28;20070;-32
2021/12/23 08:03:48;;;;;;;34.22;21.80;;;;;;;;;;5089072;28;20128;-31
2021/12/23 08:06:14;;;;;;;28.35;20.15;;;;;;;;;;5089520;28;20028;-31
2021/12/23 08:08:40;;;;;;;33.13;21.95;;;;;;;;;;5088996;28;20516;-32
2021/12/23 08:11:06;;;;;;;31.77;21.45;;;;;;;;;;5090731;28;20115;-34
2021/12/23 08:13:33;;;;;;;33.45;21.65;;;;;;;;;;5090227;28;20537;-31
2021/12/23 08:16:00;;;;;;;37.08;23.02;;;;;;;;;;5090538;28;20054;-29
2021/12/23 08:18:27;;;;;;;34.55;22.02;;;;;;;;;;5090137;28;20127;-30
2021/12/23 08:20:53;;;;;;;35.33;20.90;;;;;;;;;;5089489;28;20036;-30
2021/12/23 08:23:20;;;;;;;32.38;21.58;;;;;;;;;;5089080;28;20111;-34
2021/12/23 08:25:46;;;;;;;35.10;20.55;;;;;;;;;;5089030;28;20042;-32
2021/12/23 08:28:13;;;;;;;36.05;21.25;;;;;;;;;;5089447;28;20068;-32
2021/12/23 08:30:40;;;;;;;34.30;21.35;;;;;;;;;;5092053;28;20123;-32
2021/12/23 08:33:06;;;;;;;34.00;21.85;;;;;;;;;;5093303;28;20538;-31
2021/12/23 08:35:33;;;;;;;35.25;22.42;;;;;;;;;;5093650;28;20096;-32
2021/12/23 08:37:59;;;;;;;38.30;23.45;;;;;;;;;;5058981;28;20047;-33
2021/12/23 08:40:26;;;;;;;37.47;23.00;;;;;;;;;;5093776;28;20040;-28
2021/12/23 08:42:53;;;;;;;37.25;22.98;;;;;;;;;;5093364;28;20036;-31
2021/12/23 08:45:21;;;;;;;39.67;24.58;;;;;;;;;;5075107;28;20051;-32
2021/12/23 08:47:48;;;;;;;39.92;23.92;;;;;;;;;;5092632;28;20036;-33
2021/12/23 08:50:14;;;;;;;39.83;24.88;;;;;;;;;;5092835;28;20036;-32
2021/12/23 08:52:40;;;;;;;38.97;23.77;;;;;;;;;;5074569;28;20081;-31
2021/12/23 08:55:08;;;;;;;41.03;24.48;;;;;;;;;;5092138;28;20043;-32
2021/12/23 08:57:34;;;;;;;39.17;24.20;;;;;;;;;;5092367;28;20047;-32
2021/12/23 09:00:01;;;;;;;41.10;25.40;;;;;;;;;;5092780;28;20040;-31
2021/12/23 09:02:27;;;;;;;36.88;22.92;;;;;;;;;;5092553;28;20489;-34
2021/12/23 09:04:53;;;;;;;39.35;25.42;;;;;;;;;;5092123;28;20043;-31
2021/12/23 09:07:19;;;;;;;40.25;23.83;;;;;;;;;;5074239;28;20123;-31
2021/12/23 09:09:50;;;;;;;38.75;23.77;;;;;;;;;;5092143;28;20122;-33
2021/12/23 09:12:16;;;;;;;37.17;23.92;;;;;;;;;;5092521;28;20086;-31
2021/12/23 09:14:44;;;;;;;42.60;24.52;;;;;;;;;;5092011;28;20043;-31
2021/12/23 09:17:11;;;;;;;43.17;24.75;;;;;;;;;;5074345;28;20079;-34
2021/12/23 09:19:37;;;;;;;41.83;26.75;;;;;;;;;;5092151;28;20040;-32
2021/12/23 09:22:05;;;;;;;45.95;26.52;;;;;;;;;;5092145;28;20039;-32
2021/12/23 09:24:32;;;;;;;45.38;27.50;;;;;;;;;;5073754;28;20051;-32
2021/12/23 09:27:21;;;;;;;48.47;27.05;;;;;;;;;;5092049;28;20489;-33
2021/12/23 09:35:02;;;;;;;43.58;25.48;;;;;;;;;;5090798;28;20044;-34
2021/12/23 09:37:31;;;;;;;44.28;24.88;;;;;;;;;;5091558;28;20040;-30
2021/12/23 09:40:02;;;;;;;40.95;26.08;;;;;;;;;;5073751;28;20047;-29
2021/12/23 09:42:30;;;;;;;40.25;25.05;;;;;;;;;;5073706;28;20055;-29
2021/12/23 09:44:59;;;;;;;46.53;27.27;;;;;;;;;;5090983;28;20040;-29
2021/12/23 09:47:35;;;;;;;47.90;26.42;;;;;;;;;;5090218;28;20036;-29
2021/12/23 09:50:02;;;;;;;45.33;25.45;;;;;;;;;;5091856;28;20042;-32
2021/12/23 09:52:30;;;;;;;43.30;26.35;;;;;;;;;;5091549;28;20481;-33
2021/12/23 09:55:06;;;;;;;48.60;27.65;;;;;;;;;;5091010;28;20074;-32
2021/12/23 09:57:35;;;;;;;40.30;23.75;;;;;;;;;;5091092;28;20047;-33
2021/12/23 10:00:04;;;;;;;45.53;26.73;;;;;;;;;;5091541;28;20097;-33
2021/12/23 10:02:30;;;;;;;47.78;27.42;;;;;;;;;;5091337;28;20078;-33
2021/12/23 10:04:56;;;;;;;45.65;27.55;;;;;;;;;;5091262;28;20040;-33
2021/12/23 10:07:22;;;;;;;47.47;27.80;;;;;;;;;;5091141;28;20089;-33
2021/12/23 10:10:13;;;;;;;46.97;25.30;;;;;;;;;;5091370;28;20040;-32
2021/12/23 10:13:17;;;;;;;47.28;27.92;;;;;;;;;;5073507;28;20040;-32
2021/12/23 10:32:51;;;;;;;45.83;25.27;;;;;;;;;;5090626;28;20040;-33
2021/12/23 10:38:20;;;;;;;47.58;27.85;;;;;;;;;;5075400;28;20122;-32
2021/12/23 10:40:54;;;;;;;54.03;27.23;;;;;;;;;;5090410;28;20123;-32
2021/12/23 10:43:28;;;;;;;50.97;28.25;;;;;;;;;;5091029;28;20046;-28
2021/12/23 10:45:58;;;;;;;46.50;26.92;;;;;;;;;;5090529;28;20048;-28
2021/12/23 10:48:26;;;;;;;50.53;28.30;;;;;;;;;;5089676;28;20126;-29
2021/12/23 10:50:59;;;;;;;47.47;27.88;;;;;;;;;;5071658;28;20036;-28
2021/12/23 10:59:17;;;;;;;48.60;28.52;;;;;;;;;;5090305;28;20044;-30
2021/12/23 11:02:06;;;;;;;54.38;30.70;;;;;;;;;;5100916;28;20039;-33
2021/12/23 11:05:21;;;;;;;53.03;28.23;;;;;;;;;;5110914;28;20377;-31
2021/12/23 11:10:55;;;;;;;55.67;29.48;;;;;;;;;;5090884;28;20052;-29
2021/12/23 11:38:49;;;;;;;51.92;29.60;;;;;;;;;;5090490;28;20044;-29
2021/12/23 11:43:50;;;;;;;61.42;36.00;;;;;;;;;;5090436;28;20050;-30
2021/12/23 11:46:22;;;;;;;59.60;32.97;;;;;;;;;;5090317;28;20040;-30
2021/12/23 11:48:52;;;;;;;59.65;32.55;;;;;;;;;;5090066;28;20044;-29
2021/12/23 11:51:22;;;;;;;57.90;30.38;;;;;;;;;;5090439;28;20494;-30
2021/12/23 11:53:49;;;;;;;65.55;35.72;;;;;;;;;;5089575;28;20040;-34
2021/12/23 11:56:16;;;;;;;54.22;30.35;;;;;;;;;;5071482;28;20408;-31
2021/12/23 11:58:45;;;;;;;59.80;33.72;;;;;;;;;;5089841;28;20405;-29
2021/12/23 12:01:18;;;;;;;57.33;30.83;;;;;;;;;;5090377;28;20113;-30
2021/12/23 12:03:52;;;;;;;52.78;31.23;;;;;;;;;;5090260;28;20040;-30
2021/12/23 12:06:20;;;;;;;59.83;32.63;;;;;;;;;;5093922;28;20117;-29
2021/12/23 12:08:46;;;;;;;56.45;31.05;;;;;;;;;;5094117;28;20047;-31
2021/12/23 12:11:20;;;;;;;49.00;26.60;;;;;;;;;;5094111;28;20036;-30
2021/12/23 12:13:47;;;;;;;57.17;30.27;;;;;;;;;;5094106;28;20427;-29
2021/12/23 12:16:31;;;;;;;54.03;31.73;;;;;;;;;;5075796;28;20477;-31
2021/12/23 12:18:59;;;;;;;56.33;32.10;;;;;;;;;;5075424;28;20072;-30
2021/12/23 12:21:28;;;;;;;54.20;31.52;;;;;;;;;;5093631;28;20134;-30
2021/12/23 12:24:16;;;;;;;58.10;32.05;;;;;;;;;;5075515;28;20118;-30
2021/12/23 12:27:01;;;;;;;55.40;30.85;;;;;;;;;;5093792;28;20300;-28
2021/12/23 12:29:38;;;;;;;48.47;29.27;;;;;;;;;;5076293;28;20052;-29
2021/12/23 12:32:05;;;;;;;58.78;31.73;;;;;;;;;;5093936;28;20032;-28
2021/12/23 12:34:32;;;;;;;53.28;30.30;;;;;;;;;;5093556;28;20449;-29
2021/12/23 12:36:59;;;;;;;54.03;31.35;;;;;;;;;;5093085;28;20046;-29
2021/12/23 12:39:36;;;;;;;54.45;30.75;;;;;;;;;;5075357;28;20536;-31
2021/12/23 12:42:12;;;;;;;53.15;29.02;;;;;;;;;;5093174;28;20402;-30
2021/12/23 12:44:43;;;;;;;56.15;30.65;;;;;;;;;;5092658;28;20040;-30
2021/12/23 12:47:21;;;;;;;58.65;29.90;;;;;;;;;;5092517;28;20044;-28
2021/12/23 12:49:52;;;;;;;50.63;29.75;;;;;;;;;;5076495;28;20071;-32
2021/12/23 12:52:18;;;;;;;52.42;28.45;;;;;;;;;;5100904;28;20368;-32
2021/12/23 12:54:56;;;;;;;49.42;29.00;;;;;;;;;;5094777;28;20357;-34
2021/12/23 12:57:31;;;;;;;53.63;29.95;;;;;;;;;;5101829;28;20059;-31
2021/12/23 12:59:57;;;;;;;52.00;30.48;;;;;;;;;;5103282;28;20089;-32
2021/12/23 13:02:24;;;;;;;50.63;29.63;;;;;;;;;;5103383;28;20067;-34
2021/12/23 13:04:52;;;;;;;50.63;29.90;;;;;;;;;;5082059;28;20080;-33
2021/12/23 13:07:37;;;;;;;52.35;30.55;;;;;;;;;;5104742;28;20067;-35
2021/12/23 13:10:14;;;;;;;53.78;30.75;;;;;;;;;;5094162;28;20040;-32
2021/12/23 13:12:51;;;;;;;51.20;29.52;;;;;;;;;;5101795;28;20134;-32
2021/12/23 13:15:25;;;;;;;52.75;28.08;;;;;;;;;;5111320;28;20165;-32
2021/12/23 13:17:57;;;;;;;51.40;28.40;;;;;;;;;;5112204;28;20048;-32
2021/12/23 13:20:41;;;;;;;49.92;30.08;;;;;;;;;;5112123;28;20168;-33
2021/12/23 13:23:15;;;;;;;53.22;29.17;;;;;;;;;;5111502;28;20062;-33
2021/12/23 13:25:45;;;;;;;53.13;30.90;;;;;;;;;;5107090;28;20046;-32
2021/12/23 13:28:19;;;;;;;48.95;28.33;;;;;;;;;;5094282;28;20036;-31
2021/12/23 13:30:45;;;;;;;49.90;29.77;;;;;;;;;;5107746;28;20039;-32
2021/12/23 13:33:12;;;;;;;55.78;29.88;;;;;;;;;;5089174;28;20043;-30
2021/12/23 13:40:47;;;;;;;51.15;28.35;;;;;;;;;;5129798;27;20035;-31
2021/12/23 13:43:33;;;;;;;54.53;31.17;;;;;;;;;;5130337;27;20502;-31
2021/12/23 13:46:06;;;;;;;50.70;27.80;;;;;;;;;;5095910;27;20383;-30
2021/12/23 13:48:58;;;;;;;52.20;30.08;;;;;;;;;;5132476;27;20043;-29
2021/12/23 13:51:27;;;;;;;55.42;31.40;;;;;;;;;;5126315;27;20038;-29
2021/12/23 13:54:14;;;;;;;52.45;29.95;;;;;;;;;;5100964;28;20046;-28
2021/12/23 13:56:42;;;;;;;50.70;27.77;;;;;;;;;;5105021;22;20157;-29
2021/12/23 13:59:27;;;;;;;49.13;28.50;;;;;;;;;;5090248;28;20078;-29
2021/12/23 14:01:54;;;;;;;51.83;28.52;;;;;;;;;;5088684;28;20229;-29
2021/12/23 14:04:30;;;;;;;54.72;30.83;;;;;;;;;;5100589;28;20400;-28
2021/12/23 14:06:57;;;;;;;55.20;29.13;;;;;;;;;;5071027;28;20040;-29
2021/12/23 14:09:30;;;;;;;53.10;30.33;;;;;;;;;;5087618;28;20040;-30
2021/12/23 14:11:57;;;;;;;54.85;30.50;;;;;;;;;;5084886;28;20077;-30
2021/12/23 14:14:23;;;;;;;65.03;36.17;;;;;;;;;;5090907;28;20040;-30
2021/12/23 14:16:49;;;;;;;58.40;31.63;;;;;;;;;;5082633;28;20109;-29
2021/12/23 14:24:42;;;;;;;51.30;29.13;;;;;;;;;;5092578;28;20083;-25
2021/12/23 14:27:08;;;;;;;49.50;29.65;;;;;;;;;;5091079;28;20036;-25
2021/12/23 14:29:37;;;;;;;52.40;28.65;;;;;;;;;;5089133;28;20127;-25
2021/12/23 14:32:03;;;;;;;51.22;29.98;;;;;;;;;;5089558;28;20044;-25
2021/12/23 14:34:33;;;;;;;49.45;30.00;;;;;;;;;;5087289;28;20124;-25
2021/12/23 14:36:59;;;;;;;55.13;30.23;;;;;;;;;;5090674;28;20048;-26
2021/12/23 14:39:30;;;;;;;58.70;31.90;;;;;;;;;;5091500;28;20077;-25
2021/12/23 14:42:01;;;;;;;56.75;30.42;;;;;;;;;;5089881;28;20044;-25
2021/12/23 14:44:33;;;;;;;49.47;30.05;;;;;;;;;;5089638;28;20043;-25
2021/12/23 14:47:12;;;;;;;49.10;30.83;;;;;;;;;;5090474;28;20500;-25
2021/12/23 14:52:20;;;;;;;51.72;28.42;;;;;;;;;;5090847;28;20083;-26
2021/12/23 14:55:09;;;;;;;54.20;30.67;;;;;;;;;;5090307;28;20064;-25
2021/12/23 14:57:36;;;;;;;54.97;29.83;;;;;;;;;;5089357;28;20063;-25
2021/12/23 15:00:11;;;;;;;52.25;29.95;;;;;;;;;;5089160;28;20048;-25
2021/12/23 15:02:37;;;;;;;54.30;31.88;;;;;;;;;;5088938;28;20040;-25
2021/12/23 15:05:06;;;;;;;60.05;35.33;;;;;;;;;;5090239;28;20044;-29
2021/12/23 15:07:47;;;;;;;56.95;31.80;;;;;;;;;;5082219;28;20044;-26
2021/12/23 15:10:14;;;;;;;50.95;29.63;;;;;;;;;;5087880;28;20039;-28
2021/12/23 15:12:40;;;;;;;55.13;31.92;;;;;;;;;;5090897;28;20040;-29
2021/12/23 15:15:07;;;;;;;57.53;32.95;;;;;;;;;;5090477;28;20051;-27
2021/12/23 15:17:47;;;;;;;56.35;33.60;;;;;;;;;;5090709;28;20392;-29
2021/12/23 15:20:17;;;;;;;55.78;32.03;;;;;;;;;;5070476;28;20037;-28
2021/12/23 15:22:44;;;;;;;58.70;33.45;;;;;;;;;;5069934;28;20092;-28
2021/12/23 15:25:12;;;;;;;58.97;32.08;;;;;;;;;;5070042;28;20119;-28
2021/12/23 15:27:42;;;;;;;57.88;33.65;;;;;;;;;;5077109;28;20041;-28
2021/12/23 15:30:17;;;;;;;55.78;33.30;;;;;;;;;;5081737;28;20062;-27
2021/12/23 15:32:43;;;;;;;66.28;36.97;;;;;;;;;;5079362;28;20162;-28
2021/12/23 15:35:15;;;;;;;58.72;32.63;;;;;;;;;;5083220;28;20036;-28
2021/12/23 15:37:42;;;;;;;61.67;36.47;;;;;;;;;;5088936;28;20095;-28
2021/12/23 15:40:10;;;;;;;63.55;37.63;;;;;;;;;;5093650;28;20036;-28
2021/12/23 15:42:37;;;;;;;63.63;36.05;;;;;;;;;;5094236;28;20040;-28
2021/12/23 15:45:04;;;;;;;61.42;36.40;;;;;;;;;;5089114;28;20157;-27
2021/12/23 15:47:30;;;;;;;59.05;34.38;;;;;;;;;;5093262;28;20110;-28
2021/12/23 15:49:58;;;;;;;62.10;34.28;;;;;;;;;;5093868;28;20044;-28
2021/12/23 15:52:26;;;;;;;63.88;33.95;;;;;;;;;;5092639;28;20058;-28
2021/12/23 15:54:52;;;;;;;67.90;38.40;;;;;;;;;;5091431;28;20078;-29
2021/12/23 15:57:18;;;;;;;66.18;34.58;;;;;;;;;;5086672;28;20448;-27